Terminal Aerodrome Forecast
Issued by NWS

Home | Current Version | Previous Version | Text Only | Print | Product List | Glossary On
Versions: 1 2 3 4 5 6 7 8 9 10 11 12 13 14 15 16 17 18 19 20 21
000
FTUS43 KOAX 222350 CCA
TAFBFF
TAF COR
KBFF 222350Z 2300/2324 12015G25KT 6SM BR SCT008 OVC015
      TEMPO 2300/2303 3SM -RA BR OVC008
     FM230300 12012KT 3SM BR OVC007
     FM230800 12010KT 2SM BR OVC003
     FM231500 10008KT 4SM BR OVC005
     FM231800 13015G25KT P6SM VCTS BKN015CB=

USA.gov is the U.S. government's official web portal to all federal, state and local government web resources and services.